Time;durP1;ratioP1;P1;durP2;ratioP2;P2;SDS_P1;SDS_P2;PMS_P1;PMS_P2;Temp;Humidity;BMP_temperature;BMP_pressure;BME280_temperature;BME280_humidity;BME280_pressure;Samples;Min_cycle;Max_cycle;Signal;HPM_P1;HPM_P2
2022/06/26 00:02:06;;;;;;;9.80;7.43;;;;;;;21.19;89.38;96837.91;4984505;28;20050;-65
2022/06/26 00:04:33;;;;;;;10.10;7.57;;;;;;;21.05;90.29;96838.31;4984392;28;20524;-64
2022/06/26 00:07:00;;;;;;;14.27;7.25;;;;;;;20.43;91.39;96765.53;4985952;28;20058;-66
2022/06/26 00:09:28;;;;;;;12.60;7.82;;;;;;;20.51;91.79;96773.38;4985910;28;20100;-65
2022/06/26 00:11:55;;;;;;;10.48;7.10;;;;;;;18.86;91.64;96493.63;4985759;28;20073;-65
2022/06/26 00:14:23;;;;;;;10.13;7.03;;;;;;;20.38;93.08;96763.25;4986078;28;20054;-64
2022/06/26 00:16:49;;;;;;;20.40;9.02;;;;;;;19.58;100.00;96771.63;4984370;28;20061;-67
2022/06/26 00:19:16;;;;;;;21.90;9.48;;;;;;;19.54;100.00;96820.25;4985809;28;20058;-67
2022/06/26 00:21:43;;;;;;;15.48;8.88;;;;;;;19.63;100.00;96869.47;4984038;28;20065;-66
2022/06/26 00:24:11;;;;;;;24.48;9.20;;;;;;;18.92;100.00;96837.13;4985930;28;20062;-66
2022/06/26 00:26:37;;;;;;;16.38;9.32;;;;;;;19.53;100.00;96883.31;4985653;28;20062;-64
2022/06/26 00:29:04;;;;;;;14.88;8.45;;;;;;;19.53;100.00;96894.56;4985679;28;20461;-66
2022/06/26 00:31:31;;;;;;;14.82;10.68;;;;;;;19.27;100.00;96903.84;4984623;28;20077;-66
2022/06/26 00:33:58;;;;;;;10.48;8.82;;;;;;;19.02;100.00;96897.13;4985943;28;20557;-65
2022/06/26 00:36:24;;;;;;;12.93;9.25;;;;;;;18.72;100.00;96878.41;4985556;28;20073;-66
2022/06/26 00:38:52;;;;;;;18.60;11.48;;;;;;;19.14;100.00;96891.66;4984411;28;20054;-65
2022/06/26 00:41:19;;;;;;;23.75;11.68;;;;;;;19.35;100.00;96882.88;4983953;28;20057;-66
2022/06/26 00:43:46;;;;;;;20.10;11.15;;;;;;;19.36;100.00;96895.69;4984708;28;20055;-65
2022/06/26 00:46:13;;;;;;;26.67;11.85;;;;;;;19.46;100.00;96877.81;4985074;28;20060;-65
2022/06/26 00:48:40;;;;;;;12.43;8.45;;;;;;;19.44;100.00;96885.88;4985281;28;20058;-64
2022/06/26 00:51:07;;;;;;;16.98;9.40;;;;;;;19.43;100.00;96867.47;4983738;28;20065;-65
2022/06/26 00:53:34;;;;;;;19.85;10.15;;;;;;;18.90;100.00;96777.84;4983561;28;20532;-64
2022/06/26 00:56:01;;;;;;;16.92;11.73;;;;;;;19.21;100.00;96835.38;4983791;28;20058;-65
2022/06/26 00:58:27;;;;;;;15.82;10.80;;;;;;;19.24;100.00;96825.28;4983462;28;20050;-64
2022/06/26 01:00:55;;;;;;;18.08;12.52;;;;;;;19.38;100.00;96842.66;4984937;28;20062;-64
2022/06/26 01:03:22;;;;;;;22.85;12.85;;;;;;;19.79;100.00;96877.97;4983328;28;20054;-64
2022/06/26 01:05:49;;;;;;;16.20;11.10;;;;;;;19.42;100.00;96823.75;4983411;28;20054;-64
2022/06/26 01:08:16;;;;;;;15.98;11.07;;;;;;;19.51;100.00;96874.50;4983435;28;20050;-63
2022/06/26 01:10:45;;;;;;;19.75;11.85;;;;;;;19.58;100.00;96867.16;4984738;28;20058;-64
2022/06/26 01:13:12;;;;;;;15.50;10.38;;;;;;;19.31;100.00;96831.59;4983597;28;20062;-65
2022/06/26 01:15:39;;;;;;;18.55;10.35;;;;;;;19.49;100.00;96876.16;4985138;28;20081;-64
2022/06/26 01:18:06;;;;;;;18.13;10.85;;;;;;;18.94;100.00;96775.75;4988426;28;20057;-63
2022/06/26 01:20:33;;;;;;;18.08;10.88;;;;;;;19.14;100.00;96810.22;4987577;28;20061;-64
2022/06/26 01:23:07;;;;;;;13.77;9.50;;;;;;;19.41;100.00;96869.91;4988973;28;20058;-64
2022/06/26 01:25:48;;;;;;;10.07;7.72;;;;;;;19.33;100.00;96865.66;4988786;28;20082;-64
2022/06/26 01:28:16;;;;;;;12.57;7.63;;;;;;;18.33;100.00;96743.63;4988808;28;20054;-64
2022/06/26 01:30:43;;;;;;;9.10;7.28;;;;;;;19.20;100.00;96870.31;4987404;28;20054;-64
2022/06/26 01:33:11;;;;;;;10.10;7.38;;;;;;;19.14;100.00;96866.41;4987238;28;20050;-64
2022/06/26 01:35:37;;;;;;;11.05;6.93;;;;;;;19.12;100.00;96879.28;4986930;28;20509;-64
2022/06/26 01:38:15;;;;;;;10.68;7.65;;;;;;;19.08;100.00;96856.88;4988239;28;20058;-63
2022/06/26 01:40:43;;;;;;;12.57;8.05;;;;;;;18.90;100.00;96841.59;4968836;28;20054;-65
2022/06/26 01:43:15;;;;;;;10.55;7.18;;;;;;;19.02;100.00;96847.38;4967487;28;20066;-64
2022/06/26 01:45:48;;;;;;;10.13;7.13;;;;;;;18.86;100.00;96822.03;4967048;28;20067;-63
2022/06/26 01:48:16;;;;;;;8.45;6.65;;;;;;;19.05;100.00;96854.94;4968908;28;20142;-63
2022/06/26 01:50:44;;;;;;;10.13;6.95;;;;;;;18.48;100.00;96767.41;4967809;28;20062;-64
2022/06/26 01:53:11;;;;;;;8.43;6.57;;;;;;;19.04;100.00;96855.38;4968958;28;20134;-64
2022/06/26 01:55:39;;;;;;;7.72;6.15;;;;;;;19.00;100.00;96860.28;4968923;28;20054;-65
2022/06/26 01:58:05;;;;;;;9.07;6.28;;;;;;;18.69;100.00;96825.16;4967092;28;20580;-63
2022/06/26 02:00:35;;;;;;;7.82;6.78;;;;;;;18.97;100.00;96861.91;4968695;28;20058;-63
2022/06/26 02:03:02;;;;;;;8.65;6.95;;;;;;;18.74;100.00;96836.69;4968570;28;20054;-64
2022/06/26 02:05:29;;;;;;;8.07;6.78;;;;;;;18.86;100.00;96838.88;4967418;28;20077;-64
2022/06/26 02:07:56;;;;;;;10.68;7.53;;;;;;;18.99;100.00;96858.69;4968257;28;20513;-65
2022/06/26 02:15:57;;;;;;;9.38;7.60;;;;;;;19.08;100.00;96868.13;4968470;28;20510;-65
2022/06/26 02:18:24;;;;;;;9.13;7.88;;;;;;;19.06;100.00;96873.38;4968319;28;20057;-64
2022/06/26 02:20:51;;;;;;;16.42;9.20;;;;;;;19.05;100.00;96868.97;4967157;28;20055;-63
2022/06/26 02:23:18;;;;;;;12.60;8.50;;;;;;;19.11;100.00;96875.69;4968575;28;20066;-64
2022/06/26 02:25:45;;;;;;;11.15;8.90;;;;;;;19.10;100.00;96882.53;4968226;28;20062;-65
2022/06/26 02:28:12;;;;;;;12.45;9.25;;;;;;;19.11;100.00;96867.25;4967159;28;20069;-63
2022/06/26 02:30:39;;;;;;;11.63;9.38;;;;;;;19.22;100.00;96883.91;4966685;28;20526;-64
2022/06/26 02:33:06;;;;;;;11.70;8.60;;;;;;;19.29;100.00;96866.94;4968195;28;20055;-64
2022/06/26 02:35:33;;;;;;;7.32;6.63;;;;;;;19.25;100.00;96852.16;4968030;28;20062;-63
2022/06/26 02:37:59;;;;;;;7.85;6.68;;;;;;;18.72;100.00;96785.81;4967738;28;20058;-63
2022/06/26 02:40:29;;;;;;;8.73;6.07;;;;;;;19.29;100.00;96886.59;4985429;28;20061;-63
2022/06/26 02:42:56;;;;;;;6.30;5.10;;;;;;;19.16;100.00;96855.53;4985851;28;20062;-63
2022/06/26 02:45:23;;;;;;;7.10;5.60;;;;;;;18.55;100.00;96772.09;4987210;28;20061;-64
2022/06/26 02:47:49;;;;;;;7.88;6.80;;;;;;;18.81;100.00;96819.72;4987096;28;20064;-64
2022/06/26 02:50:16;;;;;;;10.48;8.00;;;;;;;18.95;100.00;96858.72;4987470;28;20050;-64
2022/06/26 02:52:43;;;;;;;7.28;6.57;;;;;;;19.05;100.00;96862.56;4987251;28;20057;-64
2022/06/26 02:55:11;;;;;;;9.50;5.90;;;;;;;19.18;100.00;96880.38;4986898;28;20325;-65
2022/06/26 02:57:38;;;;;;;8.50;6.45;;;;;;;19.13;100.00;96876.06;4987268;28;20136;-64
2022/06/26 03:00:07;;;;;;;7.88;6.47;;;;;;;19.08;100.00;96879.34;4987073;28;20527;-63
2022/06/26 03:02:34;;;;;;;9.25;7.68;;;;;;;18.87;100.00;96857.31;4987222;28;20057;-63
2022/06/26 03:05:01;;;;;;;10.43;7.53;;;;;;;19.08;100.00;96879.34;4985579;28;20496;-64
2022/06/26 03:07:28;;;;;;;10.32;8.07;;;;;;;19.04;100.00;96873.03;4987234;28;20513;-65
2022/06/26 03:09:55;;;;;;;12.15;9.65;;;;;;;18.99;100.00;96848.25;4985420;28;20058;-63
2022/06/26 03:12:22;;;;;;;14.70;10.30;;;;;;;19.17;100.00;96871.16;4985396;28;20058;-65
2022/06/26 03:14:48;;;;;;;13.50;11.05;;;;;;;18.79;100.00;96824.97;4985404;28;20352;-63
2022/06/26 03:17:16;;;;;;;14.23;11.30;;;;;;;19.18;100.00;96872.75;4986799;28;20062;-63
2022/06/26 03:19:43;;;;;;;16.40;11.52;;;;;;;18.87;100.00;96829.25;4986867;28;20076;-63
2022/06/26 03:22:09;;;;;;;10.63;8.38;;;;;;;19.10;100.00;96876.91;4986555;28;20065;-64
2022/06/26 03:24:36;;;;;;;13.13;8.98;;;;;;;19.02;100.00;96877.47;4986780;28;20070;-65
2022/06/26 03:27:03;;;;;;;13.88;10.10;;;;;;;19.08;100.00;96887.78;4986435;28;20449;-64
2022/06/26 03:29:30;;;;;;;10.68;7.93;;;;;;;18.78;100.00;96854.25;4985128;28;20077;-64
2022/06/26 03:31:57;;;;;;;11.15;9.02;;;;;;;19.06;100.00;96887.41;4985998;28;20049;-65
2022/06/26 03:34:24;;;;;;;11.82;9.10;;;;;;;19.10;100.00;96885.34;4985194;28;20928;-65
2022/06/26 03:36:50;;;;;;;12.35;9.63;;;;;;;18.94;100.00;96859.16;4986506;28;20060;-64
2022/06/26 03:39:18;;;;;;;12.50;10.07;;;;;;;18.96;100.00;96857.53;4985482;28;20095;-65
2022/06/26 03:41:57;;;;;;;13.18;10.15;;;;;;;19.26;100.00;96885.44;4984991;28;20061;-63
2022/06/26 03:44:25;;;;;;;15.43;10.45;;;;;;;19.31;100.00;96882.16;4985035;28;20057;-64
2022/06/26 03:46:52;;;;;;;17.10;10.93;;;;;;;19.37;100.00;96877.63;4984470;28;20062;-65
2022/06/26 03:49:19;;;;;;;11.88;10.15;;;;;;;19.42;100.00;96888.34;4986344;28;20054;-65
2022/06/26 03:51:46;;;;;;;13.85;11.10;;;;;;;19.26;100.00;96851.72;4984768;28;20062;-65
2022/06/26 03:54:13;;;;;;;14.93;10.35;;;;;;;19.47;100.00;96890.63;4986059;28;20046;-65
2022/06/26 03:56:40;;;;;;;15.43;10.45;;;;;;;19.53;100.00;96882.50;4986298;28;20065;-65
2022/06/26 03:59:07;;;;;;;12.13;10.60;;;;;;;19.60;100.00;96887.19;4985780;28;20473;-66
2022/06/26 04:01:34;;;;;;;13.52;9.73;;;;;;;19.65;100.00;96889.50;4984902;28;20058;-64
2022/06/26 04:04:01;;;;;;;12.35;10.57;;;;;;;18.52;100.00;96703.63;4984448;28;20054;-65
2022/06/26 04:06:28;;;;;;;11.18;9.18;;;;;;;19.69;100.00;96890.22;4985777;28;20153;-65
2022/06/26 04:08:54;;;;;;;10.45;8.52;;;;;;;19.49;100.00;96860.09;4985781;28;20046;-65
2022/06/26 04:11:21;;;;;;;12.32;9.30;;;;;;;19.74;100.00;96892.53;4984199;28;20058;-65
2022/06/26 04:13:49;;;;;;;13.13;8.65;;;;;;;19.81;100.00;96897.97;4985722;28;20039;-65
2022/06/26 04:16:19;;;;;;;9.77;8.52;;;;;;;19.89;100.00;96893.78;4985540;28;20052;-65
2022/06/26 04:18:46;;;;;;;12.10;9.35;;;;;;;19.54;100.00;96833.50;4984554;28;20058;-65
2022/06/26 04:21:13;;;;;;;9.68;8.20;;;;;;;19.96;100.00;96894.44;4984268;28;20068;-65
2022/06/26 04:23:39;;;;;;;12.50;8.40;;;;;;;20.01;100.00;96895.94;4985697;28;20432;-64
2022/06/26 04:26:06;;;;;;;11.02;7.75;;;;;;;20.11;100.00;96900.50;4985609;28;20448;-65
2022/06/26 04:28:33;;;;;;;10.95;9.18;;;;;;;19.43;100.00;96790.81;4983722;28;20441;-63
2022/06/26 04:31:00;;;;;;;12.35;9.25;;;;;;;19.98;100.00;96857.44;4984722;28;20061;-64
2022/06/26 04:33:26;;;;;;;10.30;7.93;;;;;;;20.08;100.00;96850.75;4985363;28;20053;-65
2022/06/26 04:35:53;;;;;;;8.20;7.35;;;;;;;20.50;100.00;96889.19;4985302;28;20144;-65
2022/06/26 04:38:20;;;;;;;9.05;7.68;;;;;;;20.22;100.00;96833.59;4983807;28;20053;-65
2022/06/26 04:40:47;;;;;;;8.57;7.72;;;;;;;20.61;100.00;96892.53;4984924;28;20240;-65
2022/06/26 04:43:14;;;;;;;10.23;7.82;;;;;;;20.75;100.00;96895.00;4984997;28;20057;-66
2022/06/26 04:45:41;;;;;;;11.40;6.78;;;;;;;20.84;100.00;96893.16;4984994;28;20050;-64
2022/06/26 04:48:08;;;;;;;9.95;7.40;;;;;;;20.86;100.00;96884.25;4983754;28;20084;-65
2022/06/26 04:50:34;;;;;;;7.75;6.95;;;;;;;21.21;100.00;96900.25;4982982;28;20058;-65
2022/06/26 04:53:01;;;;;;;12.48;7.93;;;;;;;20.41;100.00;96895.41;4983290;28;20081;-65
2022/06/26 04:55:28;;;;;;;9.05;8.15;;;;;;;20.60;100.00;96908.63;4985043;28;20053;-65
2022/06/26 04:57:55;;;;;;;10.30;7.75;;;;;;;20.80;100.00;96905.72;4985054;28;20057;-65
2022/06/26 05:00:22;;;;;;;7.70;6.97;;;;;;;20.90;100.00;96880.09;4983418;28;20268;-65
2022/06/26 05:02:49;;;;;;;9.55;6.97;;;;;;;21.26;100.00;96902.50;4984723;28;20072;-66
2022/06/26 05:05:15;;;;;;;7.75;6.80;;;;;;;21.33;100.00;96899.50;4984822;28;20078;-65
2022/06/26 05:07:42;;;;;;;10.43;8.43;;;;;;;21.01;100.00;96896.75;4983458;28;20058;-65
2022/06/26 05:10:09;;;;;;;13.23;8.57;;;;;;;20.35;100.00;96856.97;4984869;28;20512;-65
2022/06/26 05:12:36;;;;;;;11.20;9.25;;;;;;;21.13;100.00;96910.13;4983345;28;20085;-63
2022/06/26 05:15:03;;;;;;;12.65;9.20;;;;;;;21.35;100.00;96918.78;4984755;28;20065;-64
2022/06/26 05:17:30;;;;;;;9.98;8.77;;;;;;;21.33;100.00;96913.59;4984823;28;20058;-65
2022/06/26 05:19:57;;;;;;;9.88;7.40;;;;;;;21.14;100.00;96848.91;4985209;28;20456;-65
2022/06/26 05:22:23;;;;;;;7.95;7.18;;;;;;;21.67;100.00;96921.53;4985406;28;20065;-64
2022/06/26 05:24:50;;;;;;;10.38;7.22;;;;;;;21.75;100.00;96940.63;4984551;28;20505;-65
2022/06/26 05:27:17;;;;;;;10.93;7.25;;;;;;;21.88;97.79;96929.38;4983594;28;20058;-63
2022/06/26 05:29:44;;;;;;;8.93;7.00;;;;;;;21.86;98.94;96912.13;4983769;28;20046;-65
2022/06/26 05:32:10;;;;;;;8.38;6.63;;;;;;;21.76;96.98;96891.47;4985001;28;20538;-64
2022/06/26 05:34:37;;;;;;;10.88;6.60;;;;;;;21.99;96.69;96905.28;4983123;28;20058;-65
2022/06/26 05:37:04;;;;;;;7.53;6.72;;;;;;;21.96;96.69;96911.81;4984556;28;20058;-63
2022/06/26 05:39:31;;;;;;;7.45;6.68;;;;;;;21.68;97.50;96928.72;4984588;28;20066;-64
2022/06/26 05:41:57;;;;;;;8.60;7.50;;;;;;;21.49;96.94;96851.56;4983579;28;20358;-64
2022/06/26 05:44:28;;;;;;;8.32;7.15;;;;;;;21.85;99.14;96928.25;4983292;28;20177;-65
2022/06/26 05:46:54;;;;;;;8.65;6.85;;;;;;;21.86;99.19;96935.47;4981465;28;20564;-65
2022/06/26 05:49:21;;;;;;;9.30;7.18;;;;;;;21.92;100.00;96936.53;4992357;28;20058;-63
2022/06/26 05:51:48;;;;;;;8.02;6.72;;;;;;;21.59;100.00;96867.34;4983197;28;20054;-63
2022/06/26 05:54:15;;;;;;;7.93;7.13;;;;;;;21.92;98.65;96899.84;4983162;28;20047;-64
2022/06/26 05:56:42;;;;;;;9.85;6.97;;;;;;;22.19;96.14;96891.75;4984273;28;20054;-65
2022/06/26 05:59:08;;;;;;;8.40;7.28;;;;;;;22.38;95.35;96910.50;4984135;28;20054;-63
2022/06/26 06:01:35;;;;;;;8.70;7.18;;;;;;;22.70;95.68;96932.09;4983117;28;20051;-64
2022/06/26 06:04:02;;;;;;;10.15;6.65;;;;;;;22.37;96.82;96886.34;4987768;28;20062;-64
2022/06/26 06:06:29;;;;;;;10.57;7.70;;;;;;;22.53;98.03;96946.78;4987753;28;20054;-63
2022/06/26 06:08:56;;;;;;;8.60;6.95;;;;;;;22.72;97.42;96940.13;4969192;28;20062;-65
2022/06/26 06:11:23;;;;;;;8.55;6.53;;;;;;;22.77;95.50;96931.06;4968261;28;20061;-64
2022/06/26 06:13:50;;;;;;;9.98;7.22;;;;;;;22.46;95.22;96894.91;4968371;28;20055;-64
2022/06/26 06:16:16;;;;;;;9.43;6.53;;;;;;;22.88;93.56;96940.78;4968677;28;20061;-63
2022/06/26 06:18:43;;;;;;;17.73;9.45;;;;;;;22.94;95.54;96952.31;4968338;28;20058;-63
2022/06/26 06:21:10;;;;;;;7.75;6.95;;;;;;;23.04;93.25;96956.81;4966799;28;20078;-64
2022/06/26 06:23:38;;;;;;;8.18;7.20;;;;;;;23.17;92.76;96954.78;4966814;28;20059;-62
2022/06/26 06:26:05;;;;;;;8.15;7.22;;;;;;;23.20;91.91;96953.84;4966735;28;20055;-64
2022/06/26 06:28:32;;;;;;;7.40;6.35;;;;;;;23.22;90.06;96957.03;4967877;28;20125;-64
2022/06/26 06:30:59;;;;;;;8.32;6.80;;;;;;;23.39;90.74;96964.13;4968085;28;20092;-62
2022/06/26 06:33:26;;;;;;;9.32;6.03;;;;;;;23.64;88.50;96961.22;4966763;28;20047;-63
2022/06/26 06:35:54;;;;;;;7.00;6.30;;;;;;;23.53;86.52;96955.94;4967967;28;20051;-64
2022/06/26 06:38:22;;;;;;;7.55;6.28;;;;;;;23.34;86.83;96959.84;4968096;28;20063;-64
2022/06/26 06:40:49;;;;;;;6.68;5.97;;;;;;;23.26;87.17;96974.66;4967565;28;20548;-64
2022/06/26 06:43:16;;;;;;;11.60;7.18;;;;;;;23.45;86.26;96959.47;4968027;28;20055;-64
2022/06/26 06:45:43;;;;;;;6.28;4.88;;;;;;;23.58;81.38;96963.81;4966477;28;20062;-64
2022/06/26 06:48:09;;;;;;;5.50;5.00;;;;;;;23.40;83.07;96917.63;4966194;28;20212;-63
2022/06/26 06:50:36;;;;;;;5.90;5.15;;;;;;;22.81;84.77;96892.22;4966386;28;20050;-63
2022/06/26 06:53:04;;;;;;;7.47;6.00;;;;;;;23.70;86.56;96951.69;4967498;28;20609;-64
2022/06/26 06:55:30;;;;;;;5.72;5.22;;;;;;;23.61;83.86;96964.97;4966062;28;20058;-64
2022/06/26 06:57:57;;;;;;;5.95;5.35;;;;;;;23.76;82.91;96952.69;4967717;28;20062;-64
2022/06/26 07:00:24;;;;;;;6.18;5.10;;;;;;;23.85;83.58;96932.16;4967797;28;20434;-64
2022/06/26 07:02:51;;;;;;;6.45;4.82;;;;;;;23.85;83.03;96949.13;4966246;28;20051;-64
2022/06/26 07:05:19;;;;;;;5.40;4.90;;;;;;;23.82;82.91;96947.22;4967443;28;20050;-64
2022/06/26 07:07:46;;;;;;;6.22;5.63;;;;;;;23.70;85.30;96936.75;4967406;28;20070;-64
2022/06/26 07:10:13;;;;;;;5.75;5.15;;;;;;;23.87;84.50;96946.63;4967752;28;20055;-64
2022/06/26 07:12:39;;;;;;;6.05;5.47;;;;;;;23.75;86.24;96927.69;4967288;28;20510;-63
2022/06/26 07:15:07;;;;;;;5.30;4.80;;;;;;;23.39;85.62;96907.59;4966884;28;20059;-64
2022/06/26 07:17:34;;;;;;;5.53;5.03;;;;;;;23.46;88.02;96955.38;4967221;28;20050;-63
2022/06/26 07:20:01;;;;;;;6.05;4.95;;;;;;;23.59;86.96;96956.13;4967563;28;20063;-63
2022/06/26 07:22:27;;;;;;;7.53;5.03;;;;;;;23.63;88.64;96959.66;4967413;28;20530;-64
2022/06/26 07:24:54;;;;;;;5.78;4.82;;;;;;;23.64;88.16;96961.22;4965571;28;20061;-64
2022/06/26 07:27:22;;;;;;;6.30;5.70;;;;;;;23.49;89.21;96952.44;4965731;28;20484;-63
2022/06/26 07:29:49;;;;;;;6.70;5.00;;;;;;;23.51;88.46;96968.94;4967491;28;20066;-64
2022/06/26 07:32:16;;;;;;;6.28;4.45;;;;;;;23.02;88.39;96908.44;4966985;28;20465;-63
2022/06/26 07:34:43;;;;;;;5.53;4.95;;;;;;;23.11;90.00;96928.34;4967315;28;20066;-64
2022/06/26 07:37:10;;;;;;;6.43;5.28;;;;;;;23.31;90.85;96966.41;4965453;28;20060;-63
2022/06/26 07:39:37;;;;;;;6.55;4.90;;;;;;;23.12;90.95;96938.38;4966682;28;20515;-64
2022/06/26 07:42:04;;;;;;;5.75;4.50;;;;;;;23.41;90.62;96970.91;4967093;28;20058;-64
2022/06/26 07:44:31;;;;;;;5.72;4.68;;;;;;;23.20;90.61;96945.38;4965154;28;20054;-63
2022/06/26 07:46:58;;;;;;;5.75;5.25;;;;;;;22.93;90.53;96877.28;4965460;28;20055;-63
2022/06/26 07:49:25;;;;;;;5.15;4.55;;;;;;;23.46;91.13;96966.69;4967206;28;20058;-64
2022/06/26 07:51:52;;;;;;;7.47;4.93;;;;;;;23.63;90.63;96976.63;4965360;28;20058;-64
2022/06/26 07:54:19;;;;;;;6.97;5.07;;;;;;;23.62;91.10;96960.88;4966650;28;20489;-64
2022/06/26 07:56:48;;;;;;;4.97;4.45;;;;;;;23.39;90.13;96950.00;4965188;28;20061;-64
2022/06/26 07:59:14;;;;;;;5.65;4.85;;;;;;;23.51;91.11;96980.25;4966797;28;20134;-64
2022/06/26 08:01:42;;;;;;;10.18;6.43;;;;;;;22.90;91.77;96901.59;4965323;28;20050;-63
2022/06/26 08:04:09;;;;;;;6.55;4.88;;;;;;;23.12;92.43;96935.56;4965136;28;20055;-63
2022/06/26 08:06:36;;;;;;;6.22;5.05;;;;;;;23.58;92.23;96974.38;4966004;28;20090;-64
2022/06/26 08:09:03;;;;;;;7.75;4.35;;;;;;;23.49;89.76;96962.97;4966363;28;20061;-64
2022/06/26 08:11:30;;;;;;;7.65;4.75;;;;;;;22.97;89.07;96861.00;4966682;28;20062;-64
2022/06/26 08:13:56;;;;;;;4.45;4.05;;;;;;;23.71;85.15;96972.28;4966232;28;20058;-64
2022/06/26 08:16:23;;;;;;;6.47;5.03;;;;;;;23.57;86.33;96986.91;4966437;28;20477;-64
2022/06/26 08:18:50;;;;;;;5.90;4.35;;;;;;;23.01;86.20;96915.34;4966309;28;20425;-63
2022/06/26 08:24:02;;;;;;;4.90;4.40;;;;;;;23.15;88.39;96929.00;4966269;28;20066;-64
2022/06/26 08:26:29;;;;;;;5.53;4.45;;;;;;;23.20;87.44;96942.56;4964415;28;20051;-64
2022/06/26 08:28:55;;;;;;;4.75;4.35;;;;;;;23.46;87.70;96990.13;4964734;28;20058;-64
2022/06/26 08:31:22;;;;;;;4.43;4.00;;;;;;;23.39;88.12;96992.41;4966007;28;20054;-64
2022/06/26 08:33:49;;;;;;;7.32;5.25;;;;;;;23.12;88.22;96958.16;4964466;28;20113;-64
2022/06/26 08:36:15;;;;;;;4.70;4.30;;;;;;;23.38;88.80;96993.63;4965771;28;20449;-64
2022/06/26 08:38:43;;;;;;;5.45;4.90;;;;;;;23.03;87.72;96939.06;4964676;28;20069;-64
2022/06/26 08:41:11;;;;;;;6.15;4.55;;;;;;;23.22;86.26;96971.16;4965698;28;20051;-64
2022/06/26 08:43:40;;;;;;;4.72;4.25;;;;;;;22.77;87.61;96886.69;4965981;28;20059;-65
2022/06/26 08:46:07;;;;;;;5.88;4.53;;;;;;;23.47;86.28;96990.91;4965577;28;20061;-64
2022/06/26 08:48:43;;;;;;;4.88;4.38;;;;;;;23.50;86.61;96973.03;4964152;28;20419;-65
2022/06/26 08:51:11;;;;;;;5.85;4.47;;;;;;;23.31;85.62;96926.84;4965822;28;20557;-65
2022/06/26 08:53:40;;;;;;;6.35;5.80;;;;;;;23.84;84.53;96987.16;4966024;28;20077;-64
2022/06/26 08:56:08;;;;;;;6.28;4.72;;;;;;;23.90;83.61;96993.78;4965721;28;20066;-65
2022/06/26 08:58:35;;;;;;;5.28;4.57;;;;;;;24.00;82.98;96992.66;4965460;28;20046;-65
2022/06/26 09:01:04;;;;;;;4.97;4.40;;;;;;;24.02;82.64;96993.00;4963949;28;20078;-66
2022/06/26 09:03:34;;;;;;;5.95;4.85;;;;;;;24.00;83.39;96972.84;4964141;28;20109;-65
2022/06/26 09:06:02;;;;;;;4.78;4.13;;;;;;;23.96;83.85;96999.69;4964303;28;20046;-67
2022/06/26 09:08:30;;;;;;;5.32;4.82;;;;;;;23.93;82.68;96998.56;4964073;28;20070;-66
2022/06/26 09:10:58;;;;;;;7.10;3.92;;;;;;;23.52;82.88;96930.94;4965587;28;20441;-66
2022/06/26 09:13:40;;;;;;;6.78;4.85;;;;;;;23.65;83.73;96971.28;4965253;28;20050;-67
2022/06/26 09:16:08;;;;;;;6.20;4.53;;;;;;;23.85;84.33;96995.19;4964127;28;20539;-67
2022/06/26 09:18:36;;;;;;;5.72;4.57;;;;;;;23.78;84.07;97000.31;4965442;28;20082;-66
2022/06/26 09:21:04;;;;;;;5.30;4.82;;;;;;;23.95;85.86;96998.88;4965526;28;20062;-66
2022/06/26 09:23:32;;;;;;;6.95;5.30;;;;;;;24.06;83.35;97002.13;4963704;28;20553;-65
2022/06/26 09:26:00;;;;;;;5.80;5.07;;;;;;;24.03;84.28;97000.22;4963538;28;20070;-67
2022/06/26 09:28:27;;;;;;;7.38;4.50;;;;;;;24.07;83.19;97012.22;4965305;28;20055;-66
2022/06/26 09:31:02;;;;;;;5.18;4.68;;;;;;;23.48;83.14;96925.41;4965239;28;20051;-66
2022/06/26 09:33:34;;;;;;;6.65;4.43;;;;;;;24.01;84.06;97002.75;4963529;28;20050;-67
2022/06/26 09:36:03;;;;;;;6.57;4.65;;;;;;;24.19;82.88;97005.69;4965035;28;20151;-66
2022/06/26 09:38:35;;;;;;;5.80;4.50;;;;;;;23.54;83.00;96911.47;4967629;28;20676;-66
2022/06/26 09:41:08;;;;;;;6.18;4.63;;;;;;;24.23;82.86;97017.69;4968684;28;20066;-66
2022/06/26 09:43:37;;;;;;;8.10;5.07;;;;;;;24.17;83.47;97013.84;4968743;28;20063;-68
2022/06/26 09:46:06;;;;;;;6.07;5.47;;;;;;;24.14;83.07;97020.44;4969323;28;20062;-66
2022/06/26 09:48:33;;;;;;;7.38;5.20;;;;;;;24.16;82.69;97015.13;4967196;28;20133;-66
2022/06/26 09:51:01;;;;;;;8.48;4.82;;;;;;;23.82;81.21;96989.69;4968992;28;20061;-67
2022/06/26 09:53:30;;;;;;;5.00;4.50;;;;;;;23.91;82.11;97023.69;4969118;28;20064;-65
2022/06/26 09:55:59;;;;;;;6.20;4.78;;;;;;;23.98;82.79;97026.28;4969059;28;20133;-67
2022/06/26 09:58:27;;;;;;;5.13;4.38;;;;;;;23.73;83.48;96981.09;4968446;28;20381;-67
2022/06/26 10:06:31;;;;;;;6.25;5.03;;;;;;;24.03;83.62;97017.22;4968469;28;20083;-65
2022/06/26 10:09:01;;;;;;;6.68;4.65;;;;;;;24.01;81.46;97008.41;4966931;28;20062;-66
2022/06/26 10:11:30;;;;;;;5.15;4.60;;;;;;;23.81;82.66;97022.03;4967197;28;20053;-66
2022/06/26 10:14:03;;;;;;;6.50;4.40;;;;;;;23.33;81.46;96934.88;4968603;28;20116;-66
2022/06/26 10:16:59;;;;;;;5.35;4.43;;;;;;;23.98;82.42;97009.31;4967326;28;20054;-66
2022/06/26 10:19:50;;;;;;;5.15;4.68;;;;;;;24.03;80.95;97011.56;4967121;28;20078;-66
2022/06/26 10:22:17;;;;;;;6.50;4.15;;;;;;;24.14;80.62;97011.94;4968151;28;20070;-67
2022/06/26 10:24:59;;;;;;;5.95;4.60;;;;;;;24.01;80.66;97013.28;4966954;28;20141;-66
2022/06/26 10:27:30;;;;;;;5.05;4.60;;;;;;;24.04;80.32;97013.16;4967822;28;20509;-66
2022/06/26 10:30:08;;;;;;;8.20;5.03;;;;;;;24.17;80.77;97016.69;4966852;28;20051;-65
2022/06/26 10:32:36;;;;;;;7.15;4.95;;;;;;;23.62;80.20;96935.41;4967143;28;20591;-66
2022/06/26 10:35:04;;;;;;;6.80;5.70;;;;;;;23.77;80.74;96951.41;4967051;28;20126;-67
2022/06/26 10:37:47;;;;;;;9.65;4.88;;;;;;;24.46;79.51;97022.88;4966418;28;20062;-65
2022/06/26 10:42:52;;;;;;;5.65;5.00;;;;;;;24.57;77.75;97019.63;4966618;28;20070;-66
2022/06/26 10:43:02;;;;;;;13.02;5.10;;;;;;;24.54;78.16;97000.72;4967625;28;20059;-66
2022/06/26 10:45:37;;;;;;;6.75;4.95;;;;;;;24.62;76.61;97000.00;4967731;28;20058;-66
2022/06/26 10:48:19;;;;;;;5.20;4.45;;;;;;;24.51;76.26;96959.97;4966065;28;20070;-67
2022/06/26 10:50:56;;;;;;;8.70;5.65;;;;;;;25.11;74.49;97012.22;4967165;28;20051;-67
2022/06/26 10:53:29;;;;;;;5.95;5.13;;;;;;;24.99;74.23;97004.59;4967619;28;20065;-67
2022/06/26 10:55:58;;;;;;;;;;;;;;;25.18;74.62;97005.47;4967808;28;20522;-66
2022/06/26 10:58:27;;;;;;;5.10;4.70;;;;;;;25.32;73.27;97000.00;4966306;28;20385;-67
2022/06/26 11:01:03;;;;;;;6.72;4.85;;;;;;;25.65;70.47;97000.25;4967816;28;20062;-66
2022/06/26 11:03:31;;;;;;;5.13;4.65;;;;;;;25.66;69.56;96978.31;4968104;28;20537;-67
2022/06/26 11:06:03;;;;;;;6.40;4.95;;;;;;;26.30;66.36;96988.47;4967685;28;20050;-67
2022/06/26 11:08:35;;;;;;;6.70;5.32;;;;;;;26.67;65.91;96989.97;4966239;28;20058;-66
2022/06/26 11:11:09;;;;;;;4.80;4.30;;;;;;;27.03;64.10;96989.84;4967636;28;20059;-66
2022/06/26 11:13:48;;;;;;;6.10;4.88;;;;;;;27.40;61.39;96996.97;4967625;28;20074;-67
2022/06/26 11:16:15;;;;;;;5.68;5.28;;;;;;;27.17;57.63;96937.97;4967609;28;20457;-66
2022/06/26 11:18:42;;;;;;;5.18;4.70;;;;;;;27.51;57.89;96980.13;4967872;28;20058;-67
2022/06/26 11:21:15;;;;;;;7.53;4.95;;;;;;;27.22;57.29;96945.81;4966147;28;20051;-66
2022/06/26 11:23:42;;;;;;;5.40;4.90;;;;;;;27.54;59.99;96989.75;4967480;28;20426;-65
2022/06/26 11:26:11;;;;;;;7.03;5.18;;;;;;;26.83;61.11;96918.53;4966032;28;20065;-65
2022/06/26 11:28:41;;;;;;;6.65;5.10;;;;;;;27.10;62.50;96983.81;4967344;28;20473;-66
2022/06/26 11:31:19;;;;;;;5.20;4.70;;;;;;;27.01;62.44;96994.44;4965794;28;20055;-67
2022/06/26 11:33:46;;;;;;;5.65;5.15;;;;;;;26.86;61.54;96991.50;4966185;28;20063;-66
2022/06/26 11:36:15;;;;;;;5.10;4.70;;;;;;;26.37;63.25;96928.47;4966923;28;20525;-66
2022/06/26 11:39:00;;;;;;;9.20;5.22;;;;;;;26.36;63.05;96935.41;4965769;28;20061;-66
2022/06/26 11:41:27;;;;;;;5.85;5.18;;;;;;;26.65;62.99;96992.53;4967087;28;20062;-66
2022/06/26 11:43:56;;;;;;;5.63;4.90;;;;;;;26.60;63.78;96984.59;4965796;28;20050;-66
2022/06/26 11:46:23;;;;;;;5.43;4.68;;;;;;;26.52;64.64;96984.13;4967113;28;20047;-66